sensor_id;sensor_type;location;lat;lon;timestamp;pressure;altitude;pressure_sealevel;temperature;humidity
42105;BME280;70664;51.472;5.712;2023-07-13T00:01:58;101268.47;;;23.45;52.34
42105;BME280;70664;51.472;5.712;2023-07-13T00:04:25;101266.69;;;23.45;52.41
42105;BME280;70664;51.472;5.712;2023-07-13T00:06:52;101272.03;;;23.44;52.28
42105;BME280;70664;51.472;5.712;2023-07-13T00:09:19;101265.06;;;23.43;52.51
42105;BME280;70664;51.472;5.712;2023-07-13T00:11:51;101265.06;;;23.43;52.66
42105;BME280;70664;51.472;5.712;2023-07-13T00:14:18;101257.19;;;23.43;52.61
42105;BME280;70664;51.472;5.712;2023-07-13T00:16:44;101264.19;;;23.42;52.54
42105;BME280;70664;51.472;5.712;2023-07-13T00:19:11;101261.59;;;23.42;52.19
42105;BME280;70664;51.472;5.712;2023-07-13T00:21:39;101270.41;;;23.41;52.54
42105;BME280;70664;51.472;5.712;2023-07-13T00:24:12;101275.66;;;23.41;52.34
42105;BME280;70664;51.472;5.712;2023-07-13T00:26:41;101277.41;;;23.41;52.86
42105;BME280;70664;51.472;5.712;2023-07-13T00:29:12;101265.22;;;23.40;52.57
42105;BME280;70664;51.472;5.712;2023-07-13T00:31:38;101269.66;;;23.38;52.24
42105;BME280;70664;51.472;5.712;2023-07-13T00:34:04;101276.63;;;23.39;52.60
42105;BME280;70664;51.472;5.712;2023-07-13T00:36:30;101265.34;;;23.37;52.52
42105;BME280;70664;51.472;5.712;2023-07-13T00:38:56;101267.97;;;23.37;52.43
42105;BME280;70664;51.472;5.712;2023-07-13T00:41:22;101267.97;;;23.37;52.33
42105;BME280;70664;51.472;5.712;2023-07-13T00:43:48;101263.63;;;23.36;52.38
42105;BME280;70664;51.472;5.712;2023-07-13T00:46:28;101262.78;;;23.35;52.60
42105;BME280;70664;51.472;5.712;2023-07-13T00:48:59;101269.75;;;23.36;52.46
42105;BME280;70664;51.472;5.712;2023-07-13T00:51:54;101268.03;;;23.35;52.31
42105;BME280;70664;51.472;5.712;2023-07-13T00:54:26;101267.19;;;23.34;52.53
42105;BME280;70664;51.472;5.712;2023-07-13T00:56:58;101265.47;;;23.33;52.57
42105;BME280;70664;51.472;5.712;2023-07-13T00:59:25;101271.59;;;23.34;52.51
42105;BME280;70664;51.472;5.712;2023-07-13T01:01:51;101278.59;;;23.33;52.59
42105;BME280;70664;51.472;5.712;2023-07-13T01:04:18;101283.00;;;23.33;52.70
42105;BME280;70664;51.472;5.712;2023-07-13T01:06:45;101282.13;;;23.32;52.75
42105;BME280;70664;51.472;5.712;2023-07-13T01:09:14;101276.97;;;23.31;52.37
42105;BME280;70664;51.472;5.712;2023-07-13T01:11:40;101276.03;;;23.32;52.20
42105;BME280;70664;51.472;5.712;2023-07-13T01:14:08;101281.34;;;23.30;52.78
42105;BME280;70664;51.472;5.712;2023-07-13T01:16:36;101281.34;;;23.30;52.40
42105;BME280;70664;51.472;5.712;2023-07-13T01:19:57;101293.63;;;23.30;52.34
42105;BME280;70664;51.472;5.712;2023-07-13T01:22:17;101277.94;;;23.28;52.75
42105;BME280;70664;51.472;5.712;2023-07-13T01:24:46;101287.50;;;23.29;52.51
42105;BME280;70664;51.472;5.712;2023-07-13T01:27:17;101285.78;;;23.28;52.15
42105;BME280;70664;51.472;5.712;2023-07-13T01:29:45;101286.66;;;23.29;52.25
42105;BME280;70664;51.472;5.712;2023-07-13T01:32:17;101275.38;;;23.27;52.14
42105;BME280;70664;51.472;5.712;2023-07-13T01:34:47;101278.00;;;23.27;52.61
42105;BME280;70664;51.472;5.712;2023-07-13T01:37:13;101274.53;;;23.26;51.95
42105;BME280;70664;51.472;5.712;2023-07-13T01:39:38;101273.63;;;23.27;52.31
42105;BME280;70664;51.472;5.712;2023-07-13T01:42:05;101269.31;;;23.26;51.99
42105;BME280;70664;51.472;5.712;2023-07-13T01:44:31;101277.16;;;23.26;52.10
42105;BME280;70664;51.472;5.712;2023-07-13T01:46:57;101273.69;;;23.26;52.05
42105;BME280;70664;51.472;5.712;2023-07-13T01:49:23;101270.22;;;23.25;52.34
42105;BME280;70664;51.472;5.712;2023-07-13T01:51:49;101269.34;;;23.25;52.88
42105;BME280;70664;51.472;5.712;2023-07-13T01:54:15;101271.13;;;23.24;52.71
42105;BME280;70664;51.472;5.712;2023-07-13T01:56:41;101276.38;;;23.24;52.21
42105;BME280;70664;51.472;5.712;2023-07-13T01:59:08;101270.34;;;23.22;52.04
42105;BME280;70664;51.472;5.712;2023-07-13T02:01:34;101282.47;;;23.25;52.11
42105;BME280;70664;51.472;5.712;2023-07-13T02:04:00;101284.31;;;23.23;52.48
42105;BME280;70664;51.472;5.712;2023-07-13T02:06:26;101279.06;;;23.23;52.42
42105;BME280;70664;51.472;5.712;2023-07-13T02:08:52;101285.22;;;23.22;52.17
42105;BME280;70664;51.472;5.712;2023-07-13T02:11:17;101284.34;;;23.21;52.27
42105;BME280;70664;51.472;5.712;2023-07-13T02:13:43;101292.22;;;23.21;52.50
42105;BME280;70664;51.472;5.712;2023-07-13T02:16:09;101288.72;;;23.20;52.36
42105;BME280;70664;51.472;5.712;2023-07-13T02:18:35;101292.22;;;23.21;52.11
42105;BME280;70664;51.472;5.712;2023-07-13T02:21:01;101294.88;;;23.19;52.43
42105;BME280;70664;51.472;5.712;2023-07-13T02:23:28;101289.63;;;23.19;52.25
42105;BME280;70664;51.472;5.712;2023-07-13T02:25:58;101290.56;;;23.18;52.76
42105;BME280;70664;51.472;5.712;2023-07-13T02:28:24;101288.81;;;23.19;52.21
42105;BME280;70664;51.472;5.712;2023-07-13T02:30:50;101287.09;;;23.18;52.07
42105;BME280;70664;51.472;5.712;2023-07-13T02:33:16;101294.09;;;23.17;52.10
42105;BME280;70664;51.472;5.712;2023-07-13T02:35:42;101287.16;;;23.16;52.36
42105;BME280;70664;51.472;5.712;2023-07-13T02:38:08;101286.31;;;23.16;52.62
42105;BME280;70664;51.472;5.712;2023-07-13T02:40:34;101291.56;;;23.16;52.43
42105;BME280;70664;51.472;5.712;2023-07-13T02:43:02;101290.69;;;23.15;52.30
42105;BME280;70664;51.472;5.712;2023-07-13T02:45:28;101292.47;;;23.15;52.45
42105;BME280;70664;51.472;5.712;2023-07-13T02:47:54;101288.97;;;23.14;51.95
42105;BME280;70664;51.472;5.712;2023-07-13T02:50:20;101294.22;;;23.14;52.28
42105;BME280;70664;51.472;5.712;2023-07-13T02:52:46;101294.22;;;23.14;52.41
42105;BME280;70664;51.472;5.712;2023-07-13T02:55:12;101293.38;;;23.14;52.35
42105;BME280;70664;51.472;5.712;2023-07-13T02:57:38;101292.56;;;23.13;52.26
42105;BME280;70664;51.472;5.712;2023-07-13T03:00:05;101291.69;;;23.13;52.39
42105;BME280;70664;51.472;5.712;2023-07-13T03:02:32;101293.47;;;23.12;52.13
42105;BME280;70664;51.472;5.712;2023-07-13T03:04:58;101292.56;;;23.13;52.42
42105;BME280;70664;51.472;5.712;2023-07-13T03:07:24;101296.94;;;23.13;52.40
42105;BME280;70664;51.472;5.712;2023-07-13T03:09:57;101305.66;;;23.13;52.39
42105;BME280;70664;51.472;5.712;2023-07-13T03:12:24;101305.78;;;23.10;52.18
42105;BME280;70664;51.472;5.712;2023-07-13T03:14:51;101302.31;;;23.10;52.31
42105;BME280;70664;51.472;5.712;2023-07-13T03:17:17;101299.63;;;23.11;52.37
42105;BME280;70664;51.472;5.712;2023-07-13T03:19:43;101297.91;;;23.10;52.54
42105;BME280;70664;51.472;5.712;2023-07-13T03:22:09;101297.06;;;23.10;52.57
42105;BME280;70664;51.472;5.712;2023-07-13T03:24:35;101297.13;;;23.08;52.13
42105;BME280;70664;51.472;5.712;2023-07-13T03:27:05;101305.84;;;23.09;52.21
42105;BME280;70664;51.472;5.712;2023-07-13T03:29:31;101305.00;;;23.08;52.29
42105;BME280;70664;51.472;5.712;2023-07-13T03:31:57;101304.13;;;23.08;52.25
42105;BME280;70664;51.472;5.712;2023-07-13T03:34:22;101312.00;;;23.08;52.69
42105;BME280;70664;51.472;5.712;2023-07-13T03:36:48;101319.03;;;23.07;52.65
42105;BME280;70664;51.472;5.712;2023-07-13T03:39:14;101311.16;;;23.07;52.56
42105;BME280;70664;51.472;5.712;2023-07-13T03:41:40;101316.41;;;23.07;52.52
42105;BME280;70664;51.472;5.712;2023-07-13T03:44:06;101322.56;;;23.06;52.31
42105;BME280;70664;51.472;5.712;2023-07-13T03:46:32;101321.69;;;23.05;52.53
42105;BME280;70664;51.472;5.712;2023-07-13T03:48:59;101330.56;;;23.03;52.32
42105;BME280;70664;51.472;5.712;2023-07-13T03:51:25;101335.72;;;23.04;52.34
42105;BME280;70664;51.472;5.712;2023-07-13T03:53:51;101334.88;;;23.04;52.31
42105;BME280;70664;51.472;5.712;2023-07-13T03:56:18;101336.72;;;23.02;52.34
42105;BME280;70664;51.472;5.712;2023-07-13T03:58:47;101327.94;;;23.03;52.54
42105;BME280;70664;51.472;5.712;2023-07-13T04:01:16;101339.34;;;23.02;52.68
42105;BME280;70664;51.472;5.712;2023-07-13T04:03:43;101336.72;;;23.02;52.40
42105;BME280;70664;51.472;5.712;2023-07-13T04:06:26;101328.91;;;23.00;52.65
42105;BME280;70664;51.472;5.712;2023-07-13T04:08:59;101337.63;;;23.01;52.55
42105;BME280;70664;51.472;5.712;2023-07-13T04:11:29;101338.56;;;23.00;52.40
42105;BME280;70664;51.472;5.712;2023-07-13T04:13:55;101331.59;;;22.99;52.41
42105;BME280;70664;51.472;5.712;2023-07-13T04:16:21;101336.00;;;22.98;52.42
42105;BME280;70664;51.472;5.712;2023-07-13T04:18:48;101341.25;;;22.98;52.41
42105;BME280;70664;51.472;5.712;2023-07-13T04:21:15;101346.41;;;23.00;52.50
42105;BME280;70664;51.472;5.712;2023-07-13T04:23:42;101349.13;;;22.98;52.64
42105;BME280;70664;51.472;5.712;2023-07-13T04:26:08;101353.44;;;22.99;52.56
42105;BME280;70664;51.472;5.712;2023-07-13T04:28:34;101348.25;;;22.98;52.35
42105;BME280;70664;51.472;5.712;2023-07-13T04:31:00;101349.16;;;22.97;52.39
42105;BME280;70664;51.472;5.712;2023-07-13T04:33:27;101344.78;;;22.97;52.35
42105;BME280;70664;51.472;5.712;2023-07-13T04:35:55;101356.97;;;22.98;52.37
42105;BME280;70664;51.472;5.712;2023-07-13T04:38:26;101356.13;;;22.98;52.63
42105;BME280;70664;51.472;5.712;2023-07-13T04:40:58;101365.69;;;22.99;52.50
42105;BME280;70664;51.472;5.712;2023-07-13T04:43:25;101361.34;;;22.98;52.62
42105;BME280;70664;51.472;5.712;2023-07-13T04:45:52;101359.66;;;22.97;52.52
42105;BME280;70664;51.472;5.712;2023-07-13T04:48:19;101365.75;;;22.97;52.55
42105;BME280;70664;51.472;5.712;2023-07-13T04:50:46;101369.22;;;22.98;52.67
42105;BME280;70664;51.472;5.712;2023-07-13T04:53:12;101362.22;;;22.98;52.42
42105;BME280;70664;51.472;5.712;2023-07-13T04:55:38;101363.13;;;22.97;52.69
42105;BME280;70664;51.472;5.712;2023-07-13T04:58:04;101358.72;;;22.98;52.88
42105;BME280;70664;51.472;5.712;2023-07-13T05:00:31;101366.69;;;22.96;52.71
42105;BME280;70664;51.472;5.712;2023-07-13T05:02:58;101372.75;;;22.97;52.70
42105;BME280;70664;51.472;5.712;2023-07-13T05:05:26;101377.16;;;22.96;52.79
42105;BME280;70664;51.472;5.712;2023-07-13T05:07:53;101377.16;;;22.96;52.64
42105;BME280;70664;51.472;5.712;2023-07-13T05:10:19;101385.88;;;22.97;52.57
42105;BME280;70664;51.472;5.712;2023-07-13T05:12:45;101379.84;;;22.95;52.63
42105;BME280;70664;51.472;5.712;2023-07-13T05:15:11;101392.03;;;22.96;52.62
42105;BME280;70664;51.472;5.712;2023-07-13T05:17:38;101388.50;;;22.97;52.87
42105;BME280;70664;51.472;5.712;2023-07-13T05:20:09;101392.91;;;22.96;52.63
42105;BME280;70664;51.472;5.712;2023-07-13T05:22:35;101389.41;;;22.96;52.62
42105;BME280;70664;51.472;5.712;2023-07-13T05:25:05;101386.78;;;22.96;52.64
42105;BME280;70664;51.472;5.712;2023-07-13T05:27:31;101381.53;;;22.96;52.92
42105;BME280;70664;51.472;5.712;2023-07-13T05:29:57;101392.91;;;22.96;53.03
42105;BME280;70664;51.472;5.712;2023-07-13T05:32:23;101397.22;;;22.97;52.76
42105;BME280;70664;51.472;5.712;2023-07-13T05:34:49;101392.81;;;22.98;52.54
42105;BME280;70664;51.472;5.712;2023-07-13T05:37:15;101399.84;;;22.97;52.82
42105;BME280;70664;51.472;5.712;2023-07-13T05:39:41;101395.53;;;22.96;52.88
42105;BME280;70664;51.472;5.712;2023-07-13T05:42:07;101398.97;;;22.97;52.77
42105;BME280;70664;51.472;5.712;2023-07-13T05:44:33;101400.69;;;22.98;52.77
42105;BME280;70664;51.472;5.712;2023-07-13T05:46:58;101408.63;;;22.96;52.84
42105;BME280;70664;51.472;5.712;2023-07-13T05:49:24;101410.34;;;22.97;53.00
42105;BME280;70664;51.472;5.712;2023-07-13T05:51:50;101400.69;;;22.98;52.99
42105;BME280;70664;51.472;5.712;2023-07-13T05:54:16;101409.44;;;22.98;52.85
42105;BME280;70664;51.472;5.712;2023-07-13T05:56:42;101403.31;;;22.98;52.63
42105;BME280;70664;51.472;5.712;2023-07-13T05:59:07;101402.47;;;22.97;52.86
42105;BME280;70664;51.472;5.712;2023-07-13T06:01:34;101408.63;;;22.96;52.77
42105;BME280;70664;51.472;5.712;2023-07-13T06:04:00;101411.25;;;22.96;53.16
42105;BME280;70664;51.472;5.712;2023-07-13T06:06:26;101411.25;;;22.96;53.49
42105;BME280;70664;51.472;5.712;2023-07-13T06:08:52;101415.59;;;22.97;53.29
42105;BME280;70664;51.472;5.712;2023-07-13T06:11:22;101419.03;;;22.98;53.08
42105;BME280;70664;51.472;5.712;2023-07-13T06:13:48;101427.78;;;22.98;53.31
42105;BME280;70664;51.472;5.712;2023-07-13T06:16:15;101433.94;;;22.97;53.51
42105;BME280;70664;51.472;5.712;2023-07-13T06:18:41;101431.31;;;22.97;53.70
42105;BME280;70664;51.472;5.712;2023-07-13T06:21:17;101438.25;;;22.76;53.70
42105;BME280;70664;51.472;5.712;2023-07-13T06:23:44;101441.22;;;22.67;54.01
42105;BME280;70664;51.472;5.712;2023-07-13T06:26:11;101438.16;;;22.55;53.92
42105;BME280;70664;51.472;5.712;2023-07-13T06:28:37;101439.13;;;22.53;54.67
42105;BME280;70664;51.472;5.712;2023-07-13T06:31:07;101439.97;;;22.53;54.49
42105;BME280;70664;51.472;5.712;2023-07-13T06:33:34;101431.38;;;22.50;54.56
42105;BME280;70664;51.472;5.712;2023-07-13T06:36:01;101439.47;;;22.42;54.35
42105;BME280;70664;51.472;5.712;2023-07-13T06:38:27;101440.22;;;22.47;54.35
42105;BME280;70664;51.472;5.712;2023-07-13T06:40:53;101448.88;;;22.49;54.57
42105;BME280;70664;51.472;5.712;2023-07-13T06:43:19;101447.34;;;22.43;54.31
42105;BME280;70664;51.472;5.712;2023-07-13T06:45:47;101451.72;;;22.43;54.52
42105;BME280;70664;51.472;5.712;2023-07-13T06:48:15;101452.50;;;22.45;54.31
42105;BME280;70664;51.472;5.712;2023-07-13T06:50:42;101450.72;;;22.45;54.54
42105;BME280;70664;51.472;5.712;2023-07-13T06:53:09;101451.59;;;22.46;54.62
42105;BME280;70664;51.472;5.712;2023-07-13T06:55:35;101450.72;;;22.45;54.40
42105;BME280;70664;51.472;5.712;2023-07-13T06:58:01;101458.59;;;22.45;54.32
42105;BME280;70664;51.472;5.712;2023-07-13T07:00:26;101458.53;;;22.47;54.33
42105;BME280;70664;51.472;5.712;2023-07-13T07:02:52;101467.34;;;22.44;54.53
42105;BME280;70664;51.472;5.712;2023-07-13T07:05:18;101469.03;;;22.47;54.63
42105;BME280;70664;51.472;5.712;2023-07-13T07:07:49;101466.19;;;22.53;54.77
42105;BME280;70664;51.472;5.712;2023-07-13T07:10:16;101467.22;;;22.49;54.77
42105;BME280;70664;51.472;5.712;2023-07-13T07:12:45;101465.72;;;22.66;54.62
42105;BME280;70664;51.472;5.712;2023-07-13T07:15:11;101468.91;;;22.74;54.56
42105;BME280;70664;51.472;5.712;2023-07-13T07:17:37;101467.88;;;22.78;55.12
42105;BME280;70664;51.472;5.712;2023-07-13T07:20:03;101471.22;;;22.82;55.28
42105;BME280;70664;51.472;5.712;2023-07-13T07:22:30;101472.94;;;22.83;55.15
42105;BME280;70664;51.472;5.712;2023-07-13T07:24:57;101470.28;;;22.84;55.18
42105;BME280;70664;51.472;5.712;2023-07-13T07:27:24;101461.50;;;22.85;55.10
42105;BME280;70664;51.472;5.712;2023-07-13T07:29:50;101463.19;;;22.86;55.67
42105;BME280;70664;51.472;5.712;2023-07-13T07:32:16;101470.19;;;22.86;55.60
42105;BME280;70664;51.472;5.712;2023-07-13T07:34:42;101471.03;;;22.86;55.48
42105;BME280;70664;51.472;5.712;2023-07-13T07:37:12;101463.19;;;22.86;55.40
42105;BME280;70664;51.472;5.712;2023-07-13T07:39:38;101475.38;;;22.87;55.93
42105;BME280;70664;51.472;5.712;2023-07-13T07:42:05;101476.25;;;22.88;55.92
42105;BME280;70664;51.472;5.712;2023-07-13T07:44:32;101471.00;;;22.88;55.67
42105;BME280;70664;51.472;5.712;2023-07-13T07:46:58;101464.03;;;22.87;55.96
42105;BME280;70664;51.472;5.712;2023-07-13T07:49:24;101472.75;;;22.87;56.22
42105;BME280;70664;51.472;5.712;2023-07-13T07:51:50;101479.69;;;22.88;55.90
42105;BME280;70664;51.472;5.712;2023-07-13T07:54:17;101478.00;;;22.87;55.99
42105;BME280;70664;51.472;5.712;2023-07-13T07:56:43;101481.53;;;22.86;56.10
42105;BME280;70664;51.472;5.712;2023-07-13T07:59:09;101489.34;;;22.88;56.30
42105;BME280;70664;51.472;5.712;2023-07-13T08:01:36;101485.03;;;22.87;56.42
42105;BME280;70664;51.472;5.712;2023-07-13T08:04:02;101486.78;;;22.86;55.93
42105;BME280;70664;51.472;5.712;2023-07-13T08:06:28;101485.81;;;22.89;55.96
42105;BME280;70664;51.472;5.712;2023-07-13T08:08:54;101484.94;;;22.88;55.42
42105;BME280;70664;51.472;5.712;2023-07-13T08:11:21;101495.44;;;22.88;55.44
42105;BME280;70664;51.472;5.712;2023-07-13T08:13:47;101488.47;;;22.87;55.27
42105;BME280;70664;51.472;5.712;2023-07-13T08:16:13;101485.09;;;22.85;55.27
42105;BME280;70664;51.472;5.712;2023-07-13T08:18:39;101492.97;;;22.85;55.52
42105;BME280;70664;51.472;5.712;2023-07-13T08:21:06;101486.84;;;22.85;55.18
42105;BME280;70664;51.472;5.712;2023-07-13T08:23:33;101476.34;;;22.85;55.09
42105;BME280;70664;51.472;5.712;2023-07-13T08:25:59;101485.09;;;22.85;55.16
42105;BME280;70664;51.472;5.712;2023-07-13T08:28:27;101480.81;;;22.83;55.35
42105;BME280;70664;51.472;5.712;2023-07-13T08:30:53;101472.03;;;22.84;55.11
42105;BME280;70664;51.472;5.712;2023-07-13T08:33:21;101477.19;;;22.63;54.63
42105;BME280;70664;51.472;5.712;2023-07-13T08:35:50;101477.78;;;22.46;55.22
42105;BME280;70664;51.472;5.712;2023-07-13T08:38:17;101482.38;;;22.39;55.64
42105;BME280;70664;51.472;5.712;2023-07-13T08:40:43;101481.78;;;22.31;55.41
42105;BME280;70664;51.472;5.712;2023-07-13T08:43:17;101490.50;;;22.32;55.23
42105;BME280;70664;51.472;5.712;2023-07-13T08:45:48;101483.28;;;22.38;55.30
42105;BME280;70664;51.472;5.712;2023-07-13T08:48:44;101487.66;;;22.38;54.84
42105;BME280;70664;51.472;5.712;2023-07-13T08:51:53;101485.84;;;22.40;55.34
42105;BME280;70664;51.472;5.712;2023-07-13T08:54:44;101479.53;;;22.45;54.85
42105;BME280;70664;51.472;5.712;2023-07-13T08:57:21;101479.66;;;22.42;54.82
42105;BME280;70664;51.472;5.712;2023-07-13T08:59:48;101482.41;;;22.38;54.94
42105;BME280;70664;51.472;5.712;2023-07-13T09:05:43;101478.78;;;22.43;55.55
42105;BME280;70664;51.472;5.712;2023-07-13T09:08:54;101471.53;;;22.50;55.09
42105;BME280;70664;51.472;5.712;2023-07-13T09:11:45;101468.00;;;22.51;55.44
42105;BME280;70664;51.472;5.712;2023-07-13T09:14:47;101475.09;;;22.48;54.69
42105;BME280;70664;51.472;5.712;2023-07-13T09:17:23;101469.94;;;22.46;54.83
42105;BME280;70664;51.472;5.712;2023-07-13T09:22:34;101473.41;;;22.47;54.38
42105;BME280;70664;51.472;5.712;2023-07-13T09:25:33;101470.91;;;22.43;55.03
42105;BME280;70664;51.472;5.712;2023-07-13T09:28:14;101476.88;;;22.47;54.75
42105;BME280;70664;51.472;5.712;2023-07-13T09:31:02;101477.50;;;22.54;54.14
42105;BME280;70664;51.472;5.712;2023-07-13T09:33:30;101479.19;;;22.56;53.73
42105;BME280;70664;51.472;5.712;2023-07-13T09:35:57;101474.84;;;22.55;52.88
42105;BME280;70664;51.472;5.712;2023-07-13T09:38:29;101475.75;;;22.54;52.94
42105;BME280;70664;51.472;5.712;2023-07-13T09:41:25;101475.69;;;22.56;52.46
42105;BME280;70664;51.472;5.712;2023-07-13T09:44:16;101475.75;;;22.54;52.64
42105;BME280;70664;51.472;5.712;2023-07-13T09:46:52;101472.22;;;22.55;52.64
42105;BME280;70664;51.472;5.712;2023-07-13T09:49:29;101474.78;;;22.57;52.67
42105;BME280;70664;51.472;5.712;2023-07-13T09:52:12;101469.66;;;22.54;52.35
42105;BME280;70664;51.472;5.712;2023-07-13T09:54:45;101476.59;;;22.55;52.65
42105;BME280;70664;51.472;5.712;2023-07-13T09:57:18;101474.56;;;22.63;52.54
42105;BME280;70664;51.472;5.712;2023-07-13T09:59:48;101475.16;;;22.70;52.91
42105;BME280;70664;51.472;5.712;2023-07-13T10:02:32;101474.19;;;22.72;53.29
42105;BME280;70664;51.472;5.712;2023-07-13T10:05:16;101481.09;;;22.75;53.27
42105;BME280;70664;51.472;5.712;2023-07-13T10:07:45;101481.94;;;22.75;53.84
42105;BME280;70664;51.472;5.712;2023-07-13T10:10:17;101481.94;;;22.75;54.03
42105;BME280;70664;51.472;5.712;2023-07-13T10:12:44;101475.78;;;22.77;54.05
42105;BME280;70664;51.472;5.712;2023-07-13T10:15:18;101471.41;;;22.77;53.92
42105;BME280;70664;51.472;5.712;2023-07-13T10:17:45;101475.75;;;22.78;53.90
42105;BME280;70664;51.472;5.712;2023-07-13T10:20:12;101477.50;;;22.78;53.66
42105;BME280;70664;51.472;5.712;2023-07-13T10:23:05;101479.16;;;22.80;53.74
42105;BME280;70664;51.472;5.712;2023-07-13T10:25:39;101482.41;;;22.87;53.60
42105;BME280;70664;51.472;5.712;2023-07-13T10:28:33;101484.69;;;22.96;53.20
42105;BME280;70664;51.472;5.712;2023-07-13T10:31:01;101487.34;;;22.95;51.90
42105;BME280;70664;51.472;5.712;2023-07-13T10:33:28;101464.50;;;22.98;51.95
42105;BME280;70664;51.472;5.712;2023-07-13T10:38:38;101477.84;;;22.92;52.21
42105;BME280;70664;51.472;5.712;2023-07-13T10:41:14;101469.97;;;22.92;52.04
42105;BME280;70664;51.472;5.712;2023-07-13T10:43:49;101478.78;;;22.89;52.34
42105;BME280;70664;51.472;5.712;2023-07-13T10:46:19;101473.63;;;22.88;52.39
42105;BME280;70664;51.472;5.712;2023-07-13T10:48:51;101482.31;;;22.88;52.47
42105;BME280;70664;51.472;5.712;2023-07-13T10:51:19;101485.69;;;22.92;51.94
42105;BME280;70664;51.472;5.712;2023-07-13T10:54:11;101470.81;;;22.93;51.42
42105;BME280;70664;51.472;5.712;2023-07-13T10:56:41;101472.53;;;22.94;51.74
42105;BME280;70664;51.472;5.712;2023-07-13T10:59:15;101477.66;;;22.97;51.49
42105;BME280;70664;51.472;5.712;2023-07-13T11:01:58;101489.81;;;22.99;51.21
42105;BME280;70664;51.472;5.712;2023-07-13T11:04:27;101482.78;;;23.00;51.37
42105;BME280;70664;51.472;5.712;2023-07-13T11:06:59;101493.38;;;22.97;51.40
42105;BME280;70664;51.472;5.712;2023-07-13T11:09:40;101486.44;;;22.96;51.10
42105;BME280;70664;51.472;5.712;2023-07-13T11:12:29;101495.41;;;22.90;51.19
42105;BME280;70664;51.472;5.712;2023-07-13T11:15:14;101512.84;;;22.91;50.85
42105;BME280;70664;51.472;5.712;2023-07-13T11:17:51;101526.91;;;22.88;51.44
42105;BME280;70664;51.472;5.712;2023-07-13T11:20:33;101517.41;;;22.86;52.44
42105;BME280;70664;51.472;5.712;2023-07-13T11:25:38;101509.00;;;23.00;52.40
42105;BME280;70664;51.472;5.712;2023-07-13T11:30:40;101509.56;;;23.08;52.77
42105;BME280;70664;51.472;5.712;2023-07-13T11:36:17;101502.72;;;23.04;53.35
42105;BME280;70664;51.472;5.712;2023-07-13T11:39:28;101506.25;;;23.03;54.02
42105;BME280;70664;51.472;5.712;2023-07-13T11:42:02;101495.81;;;23.01;54.34
42105;BME280;70664;51.472;5.712;2023-07-13T11:44:32;101499.25;;;23.03;54.23
42105;BME280;70664;51.472;5.712;2023-07-13T11:47:08;101497.59;;;23.01;54.55
42105;BME280;70664;51.472;5.712;2023-07-13T11:49:48;101503.75;;;23.00;54.84
42105;BME280;70664;51.472;5.712;2023-07-13T11:52:18;101507.28;;;22.99;54.74
42105;BME280;70664;51.472;5.712;2023-07-13T11:54:54;101500.28;;;22.99;55.43
42105;BME280;70664;51.472;5.712;2023-07-13T11:57:36;101501.13;;;23.00;55.08
42105;BME280;70664;51.472;5.712;2023-07-13T12:00:17;101494.19;;;22.99;55.56
42105;BME280;70664;51.472;5.712;2023-07-13T12:02:51;101495.06;;;22.99;55.74
42105;BME280;70664;51.472;5.712;2023-07-13T12:05:19;101490.66;;;23.00;56.05
42105;BME280;70664;51.472;5.712;2023-07-13T12:07:49;101500.28;;;22.99;55.92
42105;BME280;70664;51.472;5.712;2023-07-13T12:10:25;101491.63;;;22.97;56.23
42105;BME280;70664;51.472;5.712;2023-07-13T12:15:23;101496.00;;;22.97;56.42
42105;BME280;70664;51.472;5.712;2023-07-13T12:17:49;101497.78;;;22.96;56.58
42105;BME280;70664;51.472;5.712;2023-07-13T12:20:38;101503.88;;;22.97;56.32
42105;BME280;70664;51.472;5.712;2023-07-13T12:23:39;101496.91;;;22.96;56.59
42105;BME280;70664;51.472;5.712;2023-07-13T12:26:06;101497.78;;;22.96;56.65
42105;BME280;70664;51.472;5.712;2023-07-13T12:28:48;101489.97;;;22.95;56.46
42105;BME280;70664;51.472;5.712;2023-07-13T12:34:07;101498.69;;;22.95;56.72
42105;BME280;70664;51.472;5.712;2023-07-13T12:36:38;101507.47;;;22.94;56.71
42105;BME280;70664;51.472;5.712;2023-07-13T12:39:22;101507.47;;;22.94;56.63
42105;BME280;70664;51.472;5.712;2023-07-13T12:41:51;101503.16;;;22.93;57.05
42105;BME280;70664;51.472;5.712;2023-07-13T12:44:27;101507.41;;;22.96;56.94
42105;BME280;70664;51.472;5.712;2023-07-13T12:47:14;101500.41;;;22.96;57.10
42105;BME280;70664;51.472;5.712;2023-07-13T12:49:52;101499.63;;;22.94;56.78
42105;BME280;70664;51.472;5.712;2023-07-13T12:52:33;101501.31;;;22.95;56.89
42105;BME280;70664;51.472;5.712;2023-07-13T12:55:22;101501.38;;;22.94;56.33
42105;BME280;70664;51.472;5.712;2023-07-13T12:57:54;101504.84;;;22.94;56.47
42105;BME280;70664;51.472;5.712;2023-07-13T13:02:52;101508.38;;;22.93;56.18
42105;BME280;70664;51.472;5.712;2023-07-13T13:05:18;101510.13;;;22.93;56.45
42105;BME280;70664;51.472;5.712;2023-07-13T13:07:45;101511.06;;;22.92;56.60
42105;BME280;70664;51.472;5.712;2023-07-13T13:10:14;101514.47;;;22.94;56.35
42105;BME280;70664;51.472;5.712;2023-07-13T13:12:40;101512.72;;;22.94;56.44
42105;BME280;70664;51.472;5.712;2023-07-13T13:15:10;101522.03;;;23.01;55.84
42105;BME280;70664;51.472;5.712;2023-07-13T13:17:37;101517.38;;;23.10;55.98
42105;BME280;70664;51.472;5.712;2023-07-13T13:20:20;101517.25;;;23.13;56.05
42105;BME280;70664;51.472;5.712;2023-07-13T13:22:46;101517.44;;;23.08;56.05
42105;BME280;70664;51.472;5.712;2023-07-13T13:25:14;101530.47;;;23.10;55.96
42105;BME280;70664;51.472;5.712;2023-07-13T13:27:44;101527.94;;;23.08;55.86
42105;BME280;70664;51.472;5.712;2023-07-13T13:30:16;101536.63;;;23.09;56.13
42105;BME280;70664;51.472;5.712;2023-07-13T13:32:45;101550.63;;;23.09;55.47